Main page
METAR-TAF:

METAR-TAF

Airports :

Johannesburg, South Africa

O. R. Tambo International Airport

latitude: 26-08S, longitude: 028-14E, elevation: 1694 m

Current weather observation

The report was made 1 hour and 5 minutes ago, at 15:00 UTC
Wind 9 kt from the North, varying between North/Northwest and North/Northeast
Temperature 22°C
Humidity 33%
Pressure 1025 hPa
Visibility 10 km or more
no clouds below 1500 m and no cumulonimbus

METAR: FAOR 251500Z 01009KT 330V030 CAVOK 22/05 Q1025 NOSIG

Time: 18:05 (16:05 UTC)

Forecast

The report was made 6 hours and 5 minutes ago, at 10:00 UTC
Forecast valid from 25 at 12 UTC to 26 at 18 UTC
Wind 7 kt from the North
Visibility 10 km or more
no clouds below 1500 m and no cumulonimbus
Becoming
from 26 at 07 UTC to 26 at 09 UTC
Wind 10 kt from the West/Northwest
Becoming
from 26 at 13 UTC to 26 at 15 UTC
Wind 5 kt from the North

TAF: FAOR 251000Z 2512/2618 35007KT CAVOK BECMG 2607/2609 29010KT BECMG 2613/2615 35005KT TX26/2512Z TN13/2604Z

Weather observations and forecasts of more than 4000 airports (METAR and TAF reports).

The available stations are represented by yellow and red dots on the map.

Hover mouse over dot to see the name of the station.

Then click to see weather observations and forecasts.

To change the map : click on the green buttons with a black cross to zoom in, on the green button with a dash to zoom out, or on the green arrows for adjacent maps.


METAR-TAF: